createdAt,value
2022-08-28T00:04:16.678Z,0
2022-08-28T00:09:16.619Z,0
2022-08-28T00:14:17.091Z,0
2022-08-28T00:24:45.866Z,0
2022-08-28T00:34:16.865Z,0
2022-08-28T00:39:22.973Z,0
2022-08-28T00:44:16.625Z,0
2022-08-28T00:49:16.684Z,0
2022-08-28T00:54:16.632Z,0
2022-08-28T00:59:16.597Z,0
2022-08-28T01:04:16.644Z,0
2022-08-28T01:09:18.855Z,0
2022-08-28T01:14:16.632Z,0
2022-08-28T01:19:16.594Z,0
2022-08-28T01:24:16.645Z,0
2022-08-28T01:29:16.624Z,0
2022-08-28T01:34:16.651Z,0
2022-08-28T01:39:16.604Z,0
2022-08-28T01:44:18.038Z,0
2022-08-28T01:49:16.745Z,0
2022-08-28T01:54:16.631Z,0
2022-08-28T01:59:16.640Z,0
2022-08-28T02:04:17.277Z,0
2022-08-28T02:09:16.699Z,0
2022-08-28T02:14:16.741Z,0
2022-08-28T02:19:16.656Z,0
2022-08-28T02:24:16.706Z,0
2022-08-28T02:29:16.978Z,0
2022-08-28T02:34:16.703Z,0
2022-08-28T02:39:16.682Z,0
2022-08-28T02:44:16.706Z,0
2022-08-28T02:49:16.735Z,0
2022-08-28T02:54:16.722Z,0
2022-08-28T02:59:17.303Z,0
2022-08-28T03:04:16.793Z,0
2022-08-28T03:09:16.695Z,0
2022-08-28T03:14:16.675Z,0
2022-08-28T03:19:16.713Z,0
2022-08-28T03:24:16.861Z,0
2022-08-28T03:29:16.975Z,0
2022-08-28T03:34:16.744Z,0
2022-08-28T03:39:16.702Z,0
2022-08-28T03:44:16.702Z,0
2022-08-28T03:49:16.802Z,0
2022-08-28T03:54:16.726Z,0
2022-08-28T03:59:16.789Z,0
2022-08-28T04:04:16.745Z,0
2022-08-28T04:09:16.724Z,0
2022-08-28T04:14:16.869Z,0
2022-08-28T04:19:16.749Z,256
2022-08-28T04:24:16.796Z,256
2022-08-28T04:29:16.726Z,260
2022-08-28T04:34:16.749Z,267
2022-08-28T04:39:16.704Z,280
2022-08-28T04:44:16.747Z,286
2022-08-28T04:49:16.726Z,297
2022-08-28T04:54:16.756Z,317
2022-08-28T04:59:16.740Z,316
2022-08-28T05:04:16.808Z,328
2022-08-28T05:09:16.854Z,330
2022-08-28T05:14:16.758Z,339
2022-08-28T05:19:17.377Z,340
2022-08-28T05:24:16.757Z,344
2022-08-28T05:29:16.900Z,350
2022-08-28T05:34:16.785Z,344
2022-08-28T05:39:17.105Z,342
2022-08-28T05:44:16.752Z,371
2022-08-28T05:49:16.859Z,397
2022-08-28T05:54:16.794Z,394
2022-08-28T05:59:16.805Z,409
2022-08-28T06:04:16.880Z,420
2022-08-28T06:09:16.794Z,458
2022-08-28T06:14:17.530Z,504
2022-08-28T06:19:16.873Z,530
2022-08-28T06:24:16.830Z,545
2022-08-28T06:29:18.276Z,591
2022-08-28T06:34:16.752Z,610
2022-08-28T06:39:16.788Z,584
2022-08-28T06:44:16.828Z,582
2022-08-28T06:49:16.834Z,617
2022-08-28T06:54:21.363Z,644
2022-08-28T06:59:16.767Z,610
2022-08-28T07:04:16.699Z,649
2022-08-28T07:09:16.734Z,618
2022-08-28T07:14:16.992Z,608
2022-08-28T07:19:16.707Z,563
2022-08-28T07:24:16.714Z,708
2022-08-28T07:29:16.747Z,598
2022-08-28T07:34:16.733Z,614
2022-08-28T07:39:16.810Z,648
2022-08-28T07:44:16.734Z,592
2022-08-28T07:49:16.733Z,630
2022-08-28T07:54:19.064Z,717
2022-08-28T07:59:17.289Z,666
2022-08-28T08:04:16.712Z,631
2022-08-28T08:09:16.752Z,652
2022-08-28T08:14:16.881Z,729
2022-08-28T08:19:16.760Z,732
2022-08-28T08:24:18.001Z,577
2022-08-28T08:29:16.761Z,581
2022-08-28T08:34:16.746Z,656
2022-08-28T08:39:16.816Z,688
2022-08-28T08:44:16.788Z,690
2022-08-28T08:49:16.766Z,941
2022-08-28T08:54:17.760Z,902
2022-08-28T08:59:16.748Z,689
2022-08-28T09:04:16.741Z,3404
2022-08-28T09:09:16.800Z,3715
2022-08-28T09:14:17.023Z,7786
2022-08-28T09:19:16.799Z,5225
2022-08-28T09:24:16.789Z,7628
2022-08-28T09:29:16.774Z,1338
2022-08-28T09:34:16.808Z,1376
2022-08-28T09:39:16.793Z,1881
2022-08-28T09:44:17.868Z,3254
2022-08-28T09:49:16.837Z,5879
2022-08-28T09:54:16.829Z,7218
2022-08-28T09:59:16.890Z,2510
2022-08-28T10:04:16.867Z,1193
2022-08-28T10:09:16.764Z,1225
2022-08-28T10:14:16.804Z,13350
2022-08-28T10:19:16.863Z,13456
2022-08-28T10:24:16.801Z,11367
2022-08-28T10:29:16.834Z,1467
2022-08-28T10:34:16.862Z,1141
2022-08-28T10:39:16.796Z,12276
2022-08-28T10:44:16.796Z,7744
2022-08-28T10:49:16.790Z,11747
2022-08-28T10:54:16.829Z,11650
2022-08-28T10:59:16.796Z,12120
2022-08-28T11:04:23.518Z,9353
2022-08-28T11:09:16.809Z,2537
2022-08-28T11:14:16.822Z,7609
2022-08-28T11:19:16.809Z,1649
2022-08-28T11:24:16.808Z,1231
2022-08-28T11:29:16.922Z,1167
2022-08-28T11:34:16.842Z,1976
2022-08-28T11:39:16.812Z,1454
2022-08-28T11:44:16.836Z,1317
2022-08-28T11:49:16.809Z,1567
2022-08-28T11:54:16.792Z,1357
2022-08-28T11:59:16.899Z,1410
2022-08-28T12:04:17.346Z,999
2022-08-28T12:09:16.815Z,837
2022-08-28T12:14:16.857Z,910
2022-08-28T12:19:16.846Z,1080
2022-08-28T12:24:16.823Z,1333
2022-08-28T12:29:16.884Z,1422
2022-08-28T12:34:16.840Z,1498
2022-08-28T12:39:16.844Z,1251
2022-08-28T12:44:16.887Z,1098
2022-08-28T12:49:16.931Z,1185
2022-08-28T12:54:16.790Z,1366
2022-08-28T12:59:16.841Z,1228
2022-08-28T13:04:16.866Z,931
2022-08-28T13:14:19.647Z,593
2022-08-28T13:24:57.037Z,754
2022-08-28T13:29:45.823Z,870
2022-08-28T13:34:16.950Z,926
2022-08-28T13:39:16.837Z,995
2022-08-28T13:44:16.999Z,1011
2022-08-28T13:49:16.845Z,994
2022-08-28T13:54:17.589Z,1012
2022-08-28T13:59:16.943Z,1035
2022-08-28T14:04:16.877Z,1074
2022-08-28T14:09:17.622Z,1066
2022-08-28T14:14:16.856Z,1040
2022-08-28T14:19:16.860Z,908
2022-08-28T14:24:24.818Z,839
2022-08-28T14:29:16.852Z,801
2022-08-28T14:34:16.977Z,800
2022-08-28T14:39:16.890Z,791
2022-08-28T14:44:16.909Z,776
2022-08-28T14:49:17.406Z,797
2022-08-28T14:54:16.876Z,809
2022-08-28T14:59:19.583Z,833
2022-08-28T15:04:17.002Z,876
2022-08-28T15:09:16.881Z,670
2022-08-28T15:14:16.900Z,481
2022-08-28T15:19:16.898Z,510
2022-08-28T15:24:17.127Z,550
2022-08-28T15:29:16.874Z,374
2022-08-28T15:34:17.101Z,387
2022-08-28T15:39:16.908Z,439
2022-08-28T15:44:16.879Z,442
2022-08-28T15:49:16.912Z,493
2022-08-28T15:54:16.900Z,522
2022-08-28T15:59:16.918Z,544
2022-08-28T16:04:16.913Z,563
2022-08-28T16:09:16.915Z,563
2022-08-28T16:14:20.903Z,548
2022-08-28T16:19:16.942Z,506
2022-08-28T16:24:17.250Z,491
2022-08-28T16:29:16.896Z,480
2022-08-28T16:34:19.525Z,465
2022-08-28T16:39:16.948Z,446
2022-08-28T16:44:16.996Z,418
2022-08-28T16:49:16.913Z,398
2022-08-28T16:54:16.975Z,385
2022-08-28T16:59:16.946Z,397
2022-08-28T17:04:16.964Z,403
2022-08-28T17:09:16.963Z,353
2022-08-28T17:14:16.952Z,372
2022-08-28T17:19:16.943Z,378
2022-08-28T17:24:17.197Z,370
2022-08-28T17:29:16.973Z,359
2022-08-28T17:34:16.941Z,337
2022-08-28T17:39:16.949Z,326
2022-08-28T17:44:17.014Z,310
2022-08-28T17:49:16.954Z,299
2022-08-28T17:54:16.972Z,287
2022-08-28T17:59:17.046Z,274
2022-08-28T18:04:20.247Z,269
2022-08-28T18:09:16.958Z,263
2022-08-28T18:14:17.004Z,261
2022-08-28T18:19:16.960Z,0
2022-08-28T18:24:17.899Z,0
2022-08-28T18:29:17.002Z,0
2022-08-28T18:34:16.973Z,0
2022-08-28T18:39:18.916Z,0
2022-08-28T18:44:18.378Z,0
2022-08-28T18:49:17.071Z,0
2022-08-28T18:54:16.974Z,0
2022-08-28T18:59:16.969Z,0
2022-08-28T19:04:16.992Z,0
2022-08-28T19:09:16.975Z,0
2022-08-28T19:14:17.003Z,0
2022-08-28T19:19:16.971Z,0
2022-08-28T19:24:17.371Z,0
2022-08-28T19:29:17.012Z,0
2022-08-28T19:34:16.979Z,0
2022-08-28T19:39:17.096Z,0
2022-08-28T19:44:17.015Z,0
2022-08-28T19:49:16.959Z,0
2022-08-28T19:54:16.994Z,0
2022-08-28T19:59:17.000Z,0
2022-08-28T20:04:17.053Z,0
2022-08-28T20:09:16.995Z,0
2022-08-28T20:14:17.042Z,0
2022-08-28T20:19:17.024Z,0
2022-08-28T20:24:18.632Z,0
2022-08-28T20:29:17.033Z,0
2022-08-28T20:34:17.000Z,0
2022-08-28T20:39:17.074Z,0
2022-08-28T20:44:17.043Z,0
2022-08-28T20:49:16.989Z,0
2022-08-28T20:54:17.593Z,0
2022-08-28T20:59:17.029Z,0
2022-08-28T21:04:17.038Z,0
2022-08-28T21:09:17.042Z,0
2022-08-28T21:14:17.012Z,0
2022-08-28T21:19:17.031Z,0
2022-08-28T21:24:17.141Z,0
2022-08-28T21:29:17.018Z,0
2022-08-28T21:34:17.052Z,0
2022-08-28T21:39:17.029Z,0
2022-08-28T21:44:17.006Z,0
2022-08-28T21:49:17.082Z,0
2022-08-28T21:54:17.032Z,0
2022-08-28T21:59:17.119Z,0
2022-08-28T22:04:17.046Z,0
2022-08-28T22:09:17.050Z,0
2022-08-28T22:14:17.048Z,0
2022-08-28T22:19:17.069Z,0
2022-08-28T22:24:17.370Z,0
2022-08-28T22:29:17.027Z,0
2022-08-28T22:34:17.069Z,0
2022-08-28T22:39:17.071Z,0
2022-08-28T22:44:17.021Z,0
2022-08-28T22:49:17.110Z,0
2022-08-28T22:54:17.030Z,0
2022-08-28T22:59:17.100Z,0
2022-08-28T23:04:18.157Z,0
2022-08-28T23:09:17.452Z,0
2022-08-28T23:14:17.069Z,0
2022-08-28T23:19:17.085Z,0
2022-08-28T23:24:17.245Z,0
2022-08-28T23:29:17.056Z,0
2022-08-28T23:34:17.050Z,0
2022-08-28T23:39:17.059Z,0
2022-08-28T23:44:17.046Z,0
2022-08-28T23:49:18.041Z,0
2022-08-28T23:54:18.001Z,0
2022-08-28T23:59:17.071Z,0
